Pagrindinis puslapis
METAR-TAF:

METAR-TAF

Oro uostai :

Båtsfjord, Norvegija

platuma: 70-38N, ilguma: 029-44E, Aukštis: 10 m

Dabartinis oras

Ataskaita buvo paskelbta 44 minutes, ne 07:50 UTC
Vėjas 26 kt iš Vakarų
Temperatūra 6°C
Drėgmė 65%
Slėgis 1012 hPa
Matomumas 10 km arba daugiau
Išsisklaidę debesys ne aukštis 3000 ft

METAR: ENBS 240750Z 26026KT 9999 SCT030 06/00 Q1012

Laikas: 10:34 (08:34 UTC)

Prognozė

Ataskaita buvo paskelbta 3 valandos ir 34 minutes, ne 05:00 UTC
Prognozė galioja nuo 24 metu 06 UTC su 24 metu 15 UTC
Vėjas 25 kt iš Vakarų
Matomumas 10 km arba daugiau
nėra debesų žemiau 1500 m ir nėra kamuolinių lietaus debesų
Laikinai
nuo 24 metu 06 UTC su 24 metu 15 UTC
Vėjas 35 kt iš Vakarų su gūsio iki 47 kt

TAF: ENBS 240500Z 2406/2415 28025KT CAVOK TEMPO 2406/2415 27035G47KT

Orai ataskaitas ir orų prognozės (METAR, TAF).

turimą stotys yra geltonos ir raudonos taškus žemėlapyje.

Perkelti pele per norėdami pamatyti stoties vardą.

Tada spustelėkite, norėdami matyti oro stebėjimo ir prognozės.

Norėdami pakeisti žemėlapį: spustelėkite ant žalios mygtukų su juodo kryžiaus žemyn,; žalią mygtuką su brūkšneliu, jei norite nutolinti; arba žalių rodyklių gretimoms žemėlapius.


METAR-TAF: